ENTO/TRF METAR and TAF weather

Enter ICAO airport designator
Station Type Date Time Source
ENTO METAR 2019/06/16 07:50 UTC NOAA

ENTO 160750Z 14003KT 110V170 9999 FEW010 BKN060 17/13 Q1013 NOSIG


Station Type Date Time Source
ENTO Decoded METAR 2019/06/16 07:50 UTC NOAA

Torp, Norway (ENTO) 59-12N 010-16E 88M
Jun 16, 2019 - 03:50 AM EDT / 2019.06.16 0750 UTC
Wind: from the SE (140 degrees) at 3 MPH (3 KT) (direction variable):0
Visibility: greater than 7 mile(s):0
Sky conditions: mostly cloudy
Temperature: 62 F (17 C)
Dew Point: 55 F (13 C)
Relative Humidity: 77%
Pressure (altimeter): 29.91 in. Hg (1013 hPa)
ob: ENTO 160750Z 14003KT 110V170 9999 FEW010 BKN060 17/13 Q1013 NOSIG
cycle: 8

Station Type Date Time Source
ENTO TAF 2019/06/16 06:57 UTC NOAA

TAF ENTO 160500Z 1606/1706 15005KT 9999 -RA FEW012 BKN030
TEMPO 1606/1612 4000 SHRA BR BKN004 FEW025CB
BECMG 1612/1614 21012KT
TEMPO 1612/1615 BKN012

Example: see airport list